sensor_id;sensor_type;location;lat;lon;timestamp;pressure;altitude;pressure_sealevel;temperature;humidity
33404;BME280;19751;40.274;18.268;2024-03-02T00:01:57;100513.63;;;13.06;100.00
33404;BME280;19751;40.274;18.268;2024-03-02T00:04:22;100505.31;;;13.07;100.00
33404;BME280;19751;40.274;18.268;2024-03-02T00:06:47;100511.97;;;13.05;100.00
33404;BME280;19751;40.274;18.268;2024-03-02T00:09:16;100519.69;;;13.08;100.00
33404;BME280;19751;40.274;18.268;2024-03-02T00:11:41;100521.75;;;13.12;100.00
33404;BME280;19751;40.274;18.268;2024-03-02T00:14:07;100523.81;;;13.10;100.00
33404;BME280;19751;40.274;18.268;2024-03-02T00:16:33;100529.03;;;13.12;100.00
33404;BME280;19751;40.274;18.268;2024-03-02T00:19:05;100525.91;;;13.15;100.00
33404;BME280;19751;40.274;18.268;2024-03-02T00:21:32;100519.44;;;13.16;100.00
33404;BME280;19751;40.274;18.268;2024-03-02T00:23:59;100526.09;;;13.20;100.00
33404;BME280;19751;40.274;18.268;2024-03-02T00:26:25;100520.47;;;13.22;100.00
33404;BME280;19751;40.274;18.268;2024-03-02T00:28:54;100518.59;;;13.22;100.00
33404;BME280;19751;40.274;18.268;2024-03-02T00:31:22;100522.78;;;13.25;100.00
33404;BME280;19751;40.274;18.268;2024-03-02T00:33:48;100521.72;;;13.26;100.00
33404;BME280;19751;40.274;18.268;2024-03-02T00:36:25;100516.72;;;13.29;100.00
33404;BME280;19751;40.274;18.268;2024-03-02T00:38:53;100513.63;;;13.32;100.00
33404;BME280;19751;40.274;18.268;2024-03-02T00:43:57;100514.44;;;13.33;100.00
33404;BME280;19751;40.274;18.268;2024-03-02T00:46:23;100514.84;;;13.36;100.00
33404;BME280;19751;40.274;18.268;2024-03-02T00:48:59;100518.16;;;13.38;100.00
33404;BME280;19751;40.274;18.268;2024-03-02T00:51:27;100522.50;;;13.39;100.00
33404;BME280;19751;40.274;18.268;2024-03-02T00:53:55;100521.69;;;13.39;100.00
33404;BME280;19751;40.274;18.268;2024-03-02T00:56:22;100519.63;;;13.41;100.00
33404;BME280;19751;40.274;18.268;2024-03-02T00:58:48;100523.16;;;13.41;100.00
33404;BME280;19751;40.274;18.268;2024-03-02T01:01:14;100523.97;;;13.42;100.00
33404;BME280;19751;40.274;18.268;2024-03-02T01:03:39;100516.09;;;13.40;100.00
33404;BME280;19751;40.274;18.268;2024-03-02T01:06:07;100511.09;;;13.37;100.00
33404;BME280;19751;40.274;18.268;2024-03-02T01:08:34;100515.69;;;13.37;100.00
33404;BME280;19751;40.274;18.268;2024-03-02T01:10:59;100511.31;;;13.36;100.00
33404;BME280;19751;40.274;18.268;2024-03-02T01:13:25;100506.09;;;13.34;100.00
33404;BME280;19751;40.274;18.268;2024-03-02T01:15:51;100502.38;;;13.35;100.00
33404;BME280;19751;40.274;18.268;2024-03-02T01:18:17;100495.09;;;13.36;100.00
33404;BME280;19751;40.274;18.268;2024-03-02T01:20:42;100496.97;;;13.35;100.00
33404;BME280;19751;40.274;18.268;2024-03-02T01:23:08;100500.50;;;13.36;100.00
33404;BME280;19751;40.274;18.268;2024-03-02T01:25:33;100505.69;;;13.37;100.00
33404;BME280;19751;40.274;18.268;2024-03-02T01:27:59;100504.63;;;13.38;100.00
33404;BME280;19751;40.274;18.268;2024-03-02T01:30:24;100498.16;;;13.39;100.00
33404;BME280;19751;40.274;18.268;2024-03-02T01:32:49;100500.47;;;13.42;100.00
33404;BME280;19751;40.274;18.268;2024-03-02T01:35:15;100501.91;;;13.45;100.00
33404;BME280;19751;40.274;18.268;2024-03-02T01:37:41;100497.34;;;13.46;100.00
33404;BME280;19751;40.274;18.268;2024-03-02T01:40:07;100491.69;;;13.47;100.00
33404;BME280;19751;40.274;18.268;2024-03-02T01:42:37;100495.22;;;13.48;100.00
33404;BME280;19751;40.274;18.268;2024-03-02T01:45:05;100493.16;;;13.50;100.00
33404;BME280;19751;40.274;18.268;2024-03-02T01:47:31;100495.22;;;13.48;100.00
33404;BME280;19751;40.274;18.268;2024-03-02T01:49:57;100490.66;;;13.48;100.00
33404;BME280;19751;40.274;18.268;2024-03-02T01:52:23;100487.97;;;13.48;100.00
33404;BME280;19751;40.274;18.268;2024-03-02T01:54:49;100486.50;;;13.46;100.00
33404;BME280;19751;40.274;18.268;2024-03-02T01:57:15;100483.81;;;13.46;100.00
33404;BME280;19751;40.274;18.268;2024-03-02T01:59:41;100478.38;;;13.46;100.00
33404;BME280;19751;40.274;18.268;2024-03-02T02:02:06;100482.16;;;13.45;100.00
33404;BME280;19751;40.274;18.268;2024-03-02T02:04:32;100483.16;;;13.43;100.00
33404;BME280;19751;40.274;18.268;2024-03-02T02:06:59;100488.41;;;13.38;100.00
33404;BME280;19751;40.274;18.268;2024-03-02T02:09:24;100480.50;;;13.37;100.00
33404;BME280;19751;40.274;18.268;2024-03-02T02:11:51;100478.84;;;13.36;100.00
33404;BME280;19751;40.274;18.268;2024-03-02T02:14:16;100486.56;;;13.32;100.00
33404;BME280;19751;40.274;18.268;2024-03-02T02:16:42;100484.06;;;13.31;100.00
33404;BME280;19751;40.274;18.268;2024-03-02T02:19:07;100492.38;;;13.29;100.00
33404;BME280;19751;40.274;18.268;2024-03-02T02:21:33;100479.91;;;13.28;100.00
33404;BME280;19751;40.274;18.268;2024-03-02T02:23:59;100485.75;;;13.25;100.00
33404;BME280;19751;40.274;18.268;2024-03-02T02:26:24;100477.84;;;13.24;100.00
33404;BME280;19751;40.274;18.268;2024-03-02T02:28:50;100488.69;;;13.24;100.00
33404;BME280;19751;40.274;18.268;2024-03-02T02:31:15;100482.44;;;13.23;100.00
33404;BME280;19751;40.274;18.268;2024-03-02T02:33:42;100490.56;;;13.23;100.00
33404;BME280;19751;40.274;18.268;2024-03-02T02:36:08;100487.84;;;13.23;100.00
33404;BME280;19751;40.274;18.268;2024-03-02T02:38:38;100488.22;;;13.20;100.00
33404;BME280;19751;40.274;18.268;2024-03-02T02:41:04;100481.78;;;13.21;100.00
33404;BME280;19751;40.274;18.268;2024-03-02T02:43:29;100489.88;;;13.21;100.00
33404;BME280;19751;40.274;18.268;2024-03-02T02:45:55;100481.38;;;13.17;100.00
33404;BME280;19751;40.274;18.268;2024-03-02T02:48:20;100487.81;;;13.16;100.00
33404;BME280;19751;40.274;18.268;2024-03-02T02:50:46;100481.59;;;13.16;100.00
33404;BME280;19751;40.274;18.268;2024-03-02T02:53:11;100491.78;;;13.14;100.00
33404;BME280;19751;40.274;18.268;2024-03-02T02:55:39;100489.53;;;13.11;100.00
33404;BME280;19751;40.274;18.268;2024-03-02T02:58:10;100492.22;;;13.11;100.00
33404;BME280;19751;40.274;18.268;2024-03-02T03:00:36;100496.56;;;13.12;100.00
33404;BME280;19751;40.274;18.268;2024-03-02T03:03:02;100487.63;;;13.11;100.00
33404;BME280;19751;40.274;18.268;2024-03-02T03:05:27;100492.81;;;13.13;100.00
33404;BME280;19751;40.274;18.268;2024-03-02T03:07:53;100497.41;;;13.12;100.00
33404;BME280;19751;40.274;18.268;2024-03-02T03:10:18;100495.53;;;13.13;100.00
33404;BME280;19751;40.274;18.268;2024-03-02T03:12:47;100489.53;;;13.11;100.00
33404;BME280;19751;40.274;18.268;2024-03-02T03:15:12;100487.63;;;13.11;100.00
33404;BME280;19751;40.274;18.268;2024-03-02T03:17:38;100486.19;;;13.09;100.00
33404;BME280;19751;40.274;18.268;2024-03-02T03:20:04;100492.63;;;13.08;100.00
33404;BME280;19751;40.274;18.268;2024-03-02T03:22:31;100491.19;;;13.05;100.00
33404;BME280;19751;40.274;18.268;2024-03-02T03:24:57;100491.63;;;13.02;100.00
33404;BME280;19751;40.274;18.268;2024-03-02T03:27:22;100490.75;;;13.02;100.00
33404;BME280;19751;40.274;18.268;2024-03-02T03:29:48;100499.31;;;12.99;100.00
33404;BME280;19751;40.274;18.268;2024-03-02T03:32:13;100492.84;;;13.00;100.00
33404;BME280;19751;40.274;18.268;2024-03-02T03:34:39;100499.09;;;13.00;100.00
33404;BME280;19751;40.274;18.268;2024-03-02T03:37:05;100494.75;;;12.99;100.00
33404;BME280;19751;40.274;18.268;2024-03-02T03:39:31;100496.38;;;13.00;100.00
33404;BME280;19751;40.274;18.268;2024-03-02T03:41:56;100498.28;;;13.00;100.00
33404;BME280;19751;40.274;18.268;2024-03-02T03:44:22;100497.44;;;12.99;100.00
33404;BME280;19751;40.274;18.268;2024-03-02T03:46:47;100490.16;;;13.00;100.00
33404;BME280;19751;40.274;18.268;2024-03-02T03:49:13;100496.63;;;12.99;100.00
33404;BME280;19751;40.274;18.268;2024-03-02T03:51:38;100495.97;;;12.97;100.00
33404;BME280;19751;40.274;18.268;2024-03-02T03:54:04;100498.06;;;12.94;100.00
33404;BME280;19751;40.274;18.268;2024-03-02T03:56:29;100507.84;;;12.96;100.00
33404;BME280;19751;40.274;18.268;2024-03-02T03:58:55;100505.38;;;12.94;100.00
33404;BME280;19751;40.274;18.268;2024-03-02T04:01:20;100504.13;;;12.90;100.00
33404;BME280;19751;40.274;18.268;2024-03-02T04:03:48;100505.13;;;12.89;100.00
33404;BME280;19751;40.274;18.268;2024-03-02T04:06:13;100507.84;;;12.89;100.00
33404;BME280;19751;40.274;18.268;2024-03-02T04:08:41;100513.25;;;12.89;100.00
33404;BME280;19751;40.274;18.268;2024-03-02T04:11:06;100500.78;;;12.88;100.00
33404;BME280;19751;40.274;18.268;2024-03-02T04:13:33;100505.34;;;12.87;100.00
33404;BME280;19751;40.274;18.268;2024-03-02T04:15:58;100509.09;;;12.86;100.00
33404;BME280;19751;40.274;18.268;2024-03-02T04:18:24;100511.19;;;12.84;100.00
33404;BME280;19751;40.274;18.268;2024-03-02T04:20:49;100507.88;;;12.82;100.00
33404;BME280;19751;40.274;18.268;2024-03-02T04:23:15;100510.97;;;12.79;100.00
33404;BME280;19751;40.274;18.268;2024-03-02T04:25:40;100520.31;;;12.77;100.00
33404;BME280;19751;40.274;18.268;2024-03-02T04:28:06;100517.84;;;12.75;100.00
33404;BME280;19751;40.274;18.268;2024-03-02T04:30:31;100528.66;;;12.75;100.00
33404;BME280;19751;40.274;18.268;2024-03-02T04:32:56;100529.47;;;12.76;100.00
33404;BME280;19751;40.274;18.268;2024-03-02T04:35:22;100535.72;;;12.76;100.00
33404;BME280;19751;40.274;18.268;2024-03-02T04:37:47;100531.97;;;12.77;100.00
33404;BME280;19751;40.274;18.268;2024-03-02T04:40:13;100534.66;;;12.77;100.00
33404;BME280;19751;40.274;18.268;2024-03-02T04:42:38;100534.88;;;12.76;100.00
33404;BME280;19751;40.274;18.268;2024-03-02T04:45:04;100544.88;;;12.75;100.00
33404;BME280;19751;40.274;18.268;2024-03-02T04:47:30;100531.13;;;12.77;100.00
33404;BME280;19751;40.274;18.268;2024-03-02T04:49:55;100548.19;;;12.77;100.00
33404;BME280;19751;40.274;18.268;2024-03-02T04:52:21;100551.94;;;12.76;100.00
33404;BME280;19751;40.274;18.268;2024-03-02T04:54:46;100552.97;;;12.75;100.00
33404;BME280;19751;40.274;18.268;2024-03-02T04:57:44;100552.56;;;12.72;100.00
33404;BME280;19751;40.274;18.268;2024-03-02T05:00:10;100559.00;;;12.64;100.00
33404;BME280;19751;40.274;18.268;2024-03-02T05:02:35;100554.84;;;12.55;100.00
33404;BME280;19751;40.274;18.268;2024-03-02T05:05:01;100566.50;;;12.49;100.00
33404;BME280;19751;40.274;18.268;2024-03-02T05:07:27;100564.59;;;12.42;100.00
33404;BME280;19751;40.274;18.268;2024-03-02T05:09:53;100566.44;;;12.35;100.00
33404;BME280;19751;40.274;18.268;2024-03-02T05:12:18;100572.28;;;12.32;100.00
33404;BME280;19751;40.274;18.268;2024-03-02T05:15:02;100578.91;;;12.30;100.00
33404;BME280;19751;40.274;18.268;2024-03-02T05:17:29;100571.44;;;12.25;100.00
33404;BME280;19751;40.274;18.268;2024-03-02T05:19:54;100574.53;;;12.22;100.00
33404;BME280;19751;40.274;18.268;2024-03-02T05:22:19;100585.72;;;12.19;100.00
33404;BME280;19751;40.274;18.268;2024-03-02T05:24:45;100586.56;;;12.13;100.00
33404;BME280;19751;40.274;18.268;2024-03-02T05:27:10;100583.84;;;12.13;100.00
33404;BME280;19751;40.274;18.268;2024-03-02T05:29:36;100588.00;;;12.09;100.00
33404;BME280;19751;40.274;18.268;2024-03-02T05:32:02;100589.88;;;12.08;100.00
33404;BME280;19751;40.274;18.268;2024-03-02T05:34:27;100593.19;;;12.10;100.00
33404;BME280;19751;40.274;18.268;2024-03-02T05:36:53;100592.34;;;12.10;100.00
33404;BME280;19751;40.274;18.268;2024-03-02T05:39:18;100596.72;;;12.11;100.00
33404;BME280;19751;40.274;18.268;2024-03-02T05:41:44;100596.72;;;12.11;100.00
33404;BME280;19751;40.274;18.268;2024-03-02T05:44:09;100602.09;;;12.11;100.00
33404;BME280;19751;40.274;18.268;2024-03-02T05:46:35;100603.38;;;12.15;100.00
33404;BME280;19751;40.274;18.268;2024-03-02T05:49:00;100605.28;;;12.21;100.00
33404;BME280;19751;40.274;18.268;2024-03-02T05:51:27;100606.53;;;12.25;100.00
33404;BME280;19751;40.274;18.268;2024-03-02T05:53:52;100608.84;;;12.28;100.00
33404;BME280;19751;40.274;18.268;2024-03-02T05:56:18;100607.38;;;12.32;100.00
33404;BME280;19751;40.274;18.268;2024-03-02T05:58:43;100615.31;;;12.40;100.00
33404;BME280;19751;40.274;18.268;2024-03-02T06:01:27;100612.59;;;12.40;100.00
33404;BME280;19751;40.274;18.268;2024-03-02T06:03:57;100607.19;;;12.40;100.00
33404;BME280;19751;40.274;18.268;2024-03-02T06:06:24;100612.16;;;12.43;100.00
33404;BME280;19751;40.274;18.268;2024-03-02T06:08:49;100619.44;;;12.43;100.00
33404;BME280;19751;40.274;18.268;2024-03-02T06:11:15;100624.03;;;12.42;100.00
33404;BME280;19751;40.274;18.268;2024-03-02T06:13:41;100625.06;;;12.41;100.00
33404;BME280;19751;40.274;18.268;2024-03-02T06:16:06;100630.47;;;12.41;100.00
33404;BME280;19751;40.274;18.268;2024-03-02T06:18:33;100627.56;;;12.43;100.00
33404;BME280;19751;40.274;18.268;2024-03-02T06:20:59;100632.78;;;12.44;100.00
33404;BME280;19751;40.274;18.268;2024-03-02T06:23:26;100639.63;;;12.47;100.00
33404;BME280;19751;40.274;18.268;2024-03-02T06:25:52;100640.03;;;12.51;100.00
33404;BME280;19751;40.274;18.268;2024-03-02T06:28:17;100644.00;;;12.55;100.00
33404;BME280;19751;40.274;18.268;2024-03-02T06:30:43;100645.25;;;12.59;100.00
33404;BME280;19751;40.274;18.268;2024-03-02T06:33:09;100642.97;;;12.62;100.00
33404;BME280;19751;40.274;18.268;2024-03-02T06:35:35;100643.41;;;12.66;100.00
33404;BME280;19751;40.274;18.268;2024-03-02T06:38:01;100650.06;;;12.70;100.00
33404;BME280;19751;40.274;18.268;2024-03-02T06:40:26;100648.19;;;12.77;100.00
33404;BME280;19751;40.274;18.268;2024-03-02T06:42:52;100648.41;;;12.82;100.00
33404;BME280;19751;40.274;18.268;2024-03-02T06:45:19;100654.25;;;12.86;100.00
33404;BME280;19751;40.274;18.268;2024-03-02T06:47:44;100657.56;;;12.88;100.00
33404;BME280;19751;40.274;18.268;2024-03-02T06:50:11;100657.16;;;12.91;100.00
33404;BME280;19751;40.274;18.268;2024-03-02T06:52:36;100670.06;;;12.96;100.00
33404;BME280;19751;40.274;18.268;2024-03-02T06:55:02;100671.31;;;13.00;100.00
33404;BME280;19751;40.274;18.268;2024-03-02T06:57:29;100676.09;;;13.04;100.00
33404;BME280;19751;40.274;18.268;2024-03-02T06:59:55;100675.47;;;13.09;100.00
33404;BME280;19751;40.274;18.268;2024-03-02T07:02:24;100678.38;;;13.14;100.00
33404;BME280;19751;40.274;18.268;2024-03-02T07:04:50;100680.44;;;13.18;100.00
33404;BME280;19751;40.274;18.268;2024-03-02T07:07:16;100676.13;;;13.24;100.00
33404;BME280;19751;40.274;18.268;2024-03-02T07:09:42;100685.50;;;13.28;100.00
33404;BME280;19751;40.274;18.268;2024-03-02T07:12:08;100693.19;;;13.31;100.00
33404;BME280;19751;40.274;18.268;2024-03-02T07:14:33;100686.34;;;13.35;100.00
33404;BME280;19751;40.274;18.268;2024-03-02T07:17:18;100693.81;;;13.40;100.00
33404;BME280;19751;40.274;18.268;2024-03-02T07:19:43;100691.31;;;13.45;100.00
33404;BME280;19751;40.274;18.268;2024-03-02T07:22:09;100699.41;;;13.52;100.00
33404;BME280;19751;40.274;18.268;2024-03-02T07:24:41;100700.88;;;13.54;100.00
33404;BME280;19751;40.274;18.268;2024-03-02T07:27:08;100699.63;;;13.57;100.00
33404;BME280;19751;40.274;18.268;2024-03-02T07:29:33;100706.28;;;13.61;100.00
33404;BME280;19751;40.274;18.268;2024-03-02T07:31:59;100697.53;;;13.65;100.00
33404;BME280;19751;40.274;18.268;2024-03-02T07:34:24;100701.47;;;13.70;100.00
33404;BME280;19751;40.274;18.268;2024-03-02T07:36:50;100702.50;;;13.75;100.00
33404;BME280;19751;40.274;18.268;2024-03-02T07:39:16;100708.09;;;13.80;100.00
33404;BME280;19751;40.274;18.268;2024-03-02T07:41:41;100713.53;;;13.87;100.00
33404;BME280;19751;40.274;18.268;2024-03-02T07:44:07;100707.25;;;13.93;100.00
33404;BME280;19751;40.274;18.268;2024-03-02T07:46:33;100707.47;;;13.98;100.00
33404;BME280;19751;40.274;18.268;2024-03-02T07:48:58;100709.72;;;14.01;100.00
33404;BME280;19751;40.274;18.268;2024-03-02T07:51:24;100717.22;;;14.06;100.00
33404;BME280;19751;40.274;18.268;2024-03-02T07:53:49;100721.16;;;14.10;100.00
33404;BME280;19751;40.274;18.268;2024-03-02T07:56:15;100707.00;;;14.14;100.00
33404;BME280;19751;40.274;18.268;2024-03-02T07:58:48;100712.78;;;14.18;100.00
33404;BME280;19751;40.274;18.268;2024-03-02T08:01:14;100714.03;;;14.22;100.00
33404;BME280;19751;40.274;18.268;2024-03-02T08:03:40;100722.38;;;14.27;100.00
33404;BME280;19751;40.274;18.268;2024-03-02T08:06:06;100721.91;;;14.30;100.00
33404;BME280;19751;40.274;18.268;2024-03-02T08:08:31;100729.84;;;14.32;100.00
33404;BME280;19751;40.274;18.268;2024-03-02T08:10:57;100730.44;;;14.34;100.00
33404;BME280;19751;40.274;18.268;2024-03-02T08:13:22;100735.22;;;14.38;100.00
33404;BME280;19751;40.274;18.268;2024-03-02T08:15:48;100734.56;;;14.43;100.00
33404;BME280;19751;40.274;18.268;2024-03-02T08:18:13;100734.97;;;14.47;100.00
33404;BME280;19751;40.274;18.268;2024-03-02T08:20:40;100733.53;;;14.51;100.00
33404;BME280;19751;40.274;18.268;2024-03-02T08:23:06;100740.00;;;14.56;100.00
33404;BME280;19751;40.274;18.268;2024-03-02T08:25:32;100739.75;;;14.64;100.00
33404;BME280;19751;40.274;18.268;2024-03-02T08:27:57;100742.88;;;14.68;100.00
33404;BME280;19751;40.274;18.268;2024-03-02T08:30:23;100751.38;;;14.72;100.00
33404;BME280;19751;40.274;18.268;2024-03-02T08:32:48;100750.13;;;14.74;100.00
33404;BME280;19751;40.274;18.268;2024-03-02T08:35:14;100748.00;;;14.76;100.00
33404;BME280;19751;40.274;18.268;2024-03-02T08:37:41;100757.59;;;14.79;100.00
33404;BME280;19751;40.274;18.268;2024-03-02T08:40:08;100757.19;;;14.82;100.00
33404;BME280;19751;40.274;18.268;2024-03-02T08:42:34;100756.94;;;14.83;100.00
33404;BME280;19751;40.274;18.268;2024-03-02T08:45:00;100760.28;;;14.85;100.00
33404;BME280;19751;40.274;18.268;2024-03-02T08:47:27;100756.94;;;14.90;100.00
33404;BME280;19751;40.274;18.268;2024-03-02T08:49:52;100763.16;;;14.97;100.00
33404;BME280;19751;40.274;18.268;2024-03-02T08:52:18;100777.72;;;15.03;100.00
33404;BME280;19751;40.274;18.268;2024-03-02T08:54:44;100772.44;;;15.08;100.00
33404;BME280;19751;40.274;18.268;2024-03-02T08:57:09;100775.34;;;15.13;100.00
33404;BME280;19751;40.274;18.268;2024-03-02T08:59:35;100787.25;;;15.12;100.00
33404;BME280;19751;40.274;18.268;2024-03-02T09:02:00;100787.25;;;15.12;100.00
33404;BME280;19751;40.274;18.268;2024-03-02T09:04:26;100783.06;;;15.09;100.00
33404;BME280;19751;40.274;18.268;2024-03-02T09:06:52;100790.63;;;15.07;100.00
33404;BME280;19751;40.274;18.268;2024-03-02T09:09:18;100798.53;;;15.09;100.00
33404;BME280;19751;40.274;18.268;2024-03-02T09:11:46;100777.66;;;15.09;100.00
33404;BME280;19751;40.274;18.268;2024-03-02T09:14:11;100783.06;;;15.09;100.00
33404;BME280;19751;40.274;18.268;2024-03-02T09:16:37;100782.22;;;15.15;100.00
33404;BME280;19751;40.274;18.268;2024-03-02T09:19:03;100777.78;;;15.21;100.00
33404;BME280;19751;40.274;18.268;2024-03-02T09:21:28;100781.47;;;15.33;100.00
33404;BME280;19751;40.274;18.268;2024-03-02T09:23:55;100778.47;;;15.41;100.00
33404;BME280;19751;40.274;18.268;2024-03-02T09:26:22;100777.38;;;15.49;100.00
33404;BME280;19751;40.274;18.268;2024-03-02T09:28:47;100771.69;;;15.57;100.00
33404;BME280;19751;40.274;18.268;2024-03-02T09:31:13;100775.38;;;15.63;100.00
33404;BME280;19751;40.274;18.268;2024-03-02T09:33:38;100777.69;;;15.66;100.00
33404;BME280;19751;40.274;18.268;2024-03-02T09:36:05;100783.91;;;15.73;100.00
33404;BME280;19751;40.274;18.268;2024-03-02T09:38:33;100781.34;;;15.78;100.00
33404;BME280;19751;40.274;18.268;2024-03-02T09:41:00;100787.22;;;15.75;100.00
33404;BME280;19751;40.274;18.268;2024-03-02T09:43:26;100780.56;;;15.71;100.00
33404;BME280;19751;40.274;18.268;2024-03-02T09:45:52;100794.97;;;15.72;100.00
33404;BME280;19751;40.274;18.268;2024-03-02T09:48:18;100792.72;;;15.62;100.00
33404;BME280;19751;40.274;18.268;2024-03-02T09:50:46;100796.75;;;15.59;100.00
33404;BME280;19751;40.274;18.268;2024-03-02T09:53:12;100795.06;;;15.58;100.00
33404;BME280;19751;40.274;18.268;2024-03-02T09:55:39;100791.09;;;15.61;100.00
33404;BME280;19751;40.274;18.268;2024-03-02T09:58:09;100790.69;;;15.57;100.00
33404;BME280;19751;40.274;18.268;2024-03-02T10:00:34;100791.66;;;15.63;100.00
33404;BME280;19751;40.274;18.268;2024-03-02T10:02:59;100796.06;;;15.64;100.00
33404;BME280;19751;40.274;18.268;2024-03-02T10:05:26;100789.78;;;15.70;100.00
33404;BME280;19751;40.274;18.268;2024-03-02T10:08:00;100778.19;;;15.81;100.00
33404;BME280;19751;40.274;18.268;2024-03-02T10:10:40;100793.78;;;15.93;100.00
33404;BME280;19751;40.274;18.268;2024-03-02T10:13:12;100791.81;;;16.00;100.00
33404;BME280;19751;40.274;18.268;2024-03-02T10:15:38;100791.31;;;16.09;100.00
33404;BME280;19751;40.274;18.268;2024-03-02T10:18:11;100794.75;;;16.16;100.00
33404;BME280;19751;40.274;18.268;2024-03-02T10:20:37;100791.22;;;16.16;100.00
33404;BME280;19751;40.274;18.268;2024-03-02T10:23:13;100793.16;;;16.09;100.00
33404;BME280;19751;40.274;18.268;2024-03-02T10:25:39;100791.81;;;16.00;100.00
33404;BME280;19751;40.274;18.268;2024-03-02T10:28:05;100787.28;;;15.94;100.00
33404;BME280;19751;40.274;18.268;2024-03-02T10:30:32;100788.34;;;15.93;100.00
33404;BME280;19751;40.274;18.268;2024-03-02T10:32:58;100799.66;;;15.89;100.00
33404;BME280;19751;40.274;18.268;2024-03-02T10:35:23;100798.44;;;15.85;100.00
33404;BME280;19751;40.274;18.268;2024-03-02T10:37:49;100790.94;;;15.81;100.00
33404;BME280;19751;40.274;18.268;2024-03-02T10:40:15;100790.72;;;15.82;100.00
33404;BME280;19751;40.274;18.268;2024-03-02T10:42:42;100792.09;;;15.91;100.00
33404;BME280;19751;40.274;18.268;2024-03-02T10:45:09;100797.69;;;15.97;100.00
33404;BME280;19751;40.274;18.268;2024-03-02T10:47:38;100789.56;;;15.97;100.00
33404;BME280;19751;40.274;18.268;2024-03-02T10:50:07;100786.88;;;15.90;100.00
33404;BME280;19751;40.274;18.268;2024-03-02T10:52:37;100783.34;;;15.89;100.00
33404;BME280;19751;40.274;18.268;2024-03-02T10:55:02;100782.44;;;15.96;100.00
33404;BME280;19751;40.274;18.268;2024-03-02T10:58:01;100784.44;;;16.07;100.00
33404;BME280;19751;40.274;18.268;2024-03-02T11:00:31;100777.34;;;16.06;100.00
33404;BME280;19751;40.274;18.268;2024-03-02T11:03:05;100761.03;;;16.06;100.00
33404;BME280;19751;40.274;18.268;2024-03-02T11:05:38;100764.97;;;16.10;100.00
33404;BME280;19751;40.274;18.268;2024-03-02T11:08:11;100772.72;;;16.25;100.00
33404;BME280;19751;40.274;18.268;2024-03-02T11:10:50;100761.09;;;16.36;100.00
33404;BME280;19751;40.274;18.268;2024-03-02T11:13:22;100755.13;;;16.46;100.00
33404;BME280;19751;40.274;18.268;2024-03-02T11:15:52;100755.13;;;16.46;100.00
33404;BME280;19751;40.274;18.268;2024-03-02T11:18:20;100751.72;;;16.50;100.00
33404;BME280;19751;40.274;18.268;2024-03-02T11:20:45;100755.88;;;16.53;100.00
33404;BME280;19751;40.274;18.268;2024-03-02T11:23:11;100748.09;;;16.56;98.38
33404;BME280;19751;40.274;18.268;2024-03-02T11:25:37;100741.53;;;16.64;98.93
33404;BME280;19751;40.274;18.268;2024-03-02T11:28:06;100747.94;;;16.70;100.00
33404;BME280;19751;40.274;18.268;2024-03-02T11:33:05;100741.28;;;16.65;100.00
33404;BME280;19751;40.274;18.268;2024-03-02T11:35:44;100747.56;;;16.66;100.00
33404;BME280;19751;40.274;18.268;2024-03-02T11:38:13;100741.06;;;16.67;100.00
33404;BME280;19751;40.274;18.268;2024-03-02T11:40:39;100737.66;;;16.72;98.99
33404;BME280;19751;40.274;18.268;2024-03-02T11:43:06;100736.38;;;16.74;98.09
33404;BME280;19751;40.274;18.268;2024-03-02T11:45:33;100733.13;;;16.84;93.04
33404;BME280;19751;40.274;18.268;2024-03-02T11:47:59;100735.53;;;16.92;90.70
33404;BME280;19751;40.274;18.268;2024-03-02T11:50:35;100737.88;;;16.88;90.36
33404;BME280;19751;40.274;18.268;2024-03-02T11:53:03;100735.16;;;16.88;95.65
33404;BME280;19751;40.274;18.268;2024-03-02T11:55:37;100733.03;;;16.90;92.94
33404;BME280;19751;40.274;18.268;2024-03-02T11:58:06;100738.72;;;16.89;91.67
33404;BME280;19751;40.274;18.268;2024-03-02T12:00:31;100728.97;;;16.81;91.10
33404;BME280;19751;40.274;18.268;2024-03-02T12:05:30;100729.88;;;16.75;96.78
33404;BME280;19751;40.274;18.268;2024-03-02T12:08:00;100727.00;;;16.70;93.44
33404;BME280;19751;40.274;18.268;2024-03-02T12:10:26;100730.63;;;16.82;89.40
33404;BME280;19751;40.274;18.268;2024-03-02T12:13:05;100723.59;;;16.93;85.38
33404;BME280;19751;40.274;18.268;2024-03-02T12:15:37;100724.06;;;17.02;86.66
33404;BME280;19751;40.274;18.268;2024-03-02T12:18:04;100728.13;;;17.11;90.38
33404;BME280;19751;40.274;18.268;2024-03-02T12:20:31;100725.63;;;17.09;87.59
33404;BME280;19751;40.274;18.268;2024-03-02T12:22:58;100722.56;;;17.06;90.29
33404;BME280;19751;40.274;18.268;2024-03-02T12:25:25;100733.06;;;17.02;92.72
33404;BME280;19751;40.274;18.268;2024-03-02T12:27:53;100720.16;;;16.98;94.34
33404;BME280;19751;40.274;18.268;2024-03-02T12:30:20;100720.84;;;16.93;94.79
33404;BME280;19751;40.274;18.268;2024-03-02T12:32:46;100726.38;;;16.86;93.01
33404;BME280;19751;40.274;18.268;2024-03-02T12:35:13;100721.69;;;16.94;89.67
33404;BME280;19751;40.274;18.268;2024-03-02T12:37:46;100716.88;;;17.07;89.36